Terminal Aerodrome Forecast
Issued by NWS Grand Forks, ND

Home | Current Version | Previous Version | Graphics & Text | Print | Product List | Glossary On
Versions: 1 2 3 4 5 6 7 8 9 10 11 12 13 14 15 16 17 18 19 20 21
112
FTUS43 KFGF 121735 AAA
TAFGFK
TAF AMD
KGFK 121735Z 1218/1318 35014KT P6SM SCT012
     FM130000 35004KT P6SM SKC
     FM131000 20004KT P6SM SKC
     FM131500 16008KT P6SM SCT250=

USA.gov is the U.S. government's official web portal to all federal, state and local government web resources and services.